Terminal Aerodrome Forecast
Issued by NWS

Home | Current Version | Previous Version | Text Only | Print | Product List | Glossary On
Versions: 1 2 3 4 5 6 7 8 9 10 11 12 13 14 15 16 17 18 19 20 21 22 23
000
FTUS41 KCAR 271730
TAFBHB
TAF
KBHB 271730Z 2718/2818 02037G43KT 1/2SM SN BLSN OVC009
      TEMPO 2718/2722 1/4SM BLSN
     FM280000 35023G33KT 1 1/2SM -SN BLSN OVC008
     FM281100 34015G22KT P6SM VCSH BKN020
      AMD LTD TO CLD VIS AND WIND=

USA.gov is the U.S. government's official web portal to all federal, state and local government web resources and services.